sensor_id;sensor_type;location;lat;lon;timestamp;temperature;humidity
5394;DHT22;2720;52.396;10.064;2022-07-29T00:01:50;14.50;99.90
5394;DHT22;2720;52.396;10.064;2022-07-29T00:04:18;15.10;99.90
5394;DHT22;2720;52.396;10.064;2022-07-29T00:06:45;14.80;99.90
5394;DHT22;2720;52.396;10.064;2022-07-29T00:09:12;15.10;99.90
5394;DHT22;2720;52.396;10.064;2022-07-29T00:11:39;14.80;99.90
5394;DHT22;2720;52.396;10.064;2022-07-29T00:14:05;14.70;99.90
5394;DHT22;2720;52.396;10.064;2022-07-29T00:16:34;14.70;99.90
5394;DHT22;2720;52.396;10.064;2022-07-29T00:19:01;14.60;99.90
5394;DHT22;2720;52.396;10.064;2022-07-29T00:21:28;14.70;99.90
5394;DHT22;2720;52.396;10.064;2022-07-29T00:23:55;14.60;99.90
5394;DHT22;2720;52.396;10.064;2022-07-29T00:26:23;14.70;99.90
5394;DHT22;2720;52.396;10.064;2022-07-29T00:31:18;14.70;99.90
5394;DHT22;2720;52.396;10.064;2022-07-29T00:33:46;14.80;99.90
5394;DHT22;2720;52.396;10.064;2022-07-29T00:36:13;14.80;99.90
5394;DHT22;2720;52.396;10.064;2022-07-29T00:38:39;14.70;99.90
5394;DHT22;2720;52.396;10.064;2022-07-29T00:41:09;14.60;99.90
5394;DHT22;2720;52.396;10.064;2022-07-29T00:46:04;14.70;99.90
5394;DHT22;2720;52.396;10.064;2022-07-29T00:48:32;14.60;99.90
5394;DHT22;2720;52.396;10.064;2022-07-29T00:53:29;14.40;99.90
5394;DHT22;2720;52.396;10.064;2022-07-29T01:00:52;14.30;99.90
5394;DHT22;2720;52.396;10.064;2022-07-29T01:05:47;14.30;99.90
5394;DHT22;2720;52.396;10.064;2022-07-29T01:08:16;14.40;99.90
5394;DHT22;2720;52.396;10.064;2022-07-29T01:10:44;14.50;99.90
5394;DHT22;2720;52.396;10.064;2022-07-29T01:13:12;14.50;99.90
5394;DHT22;2720;52.396;10.064;2022-07-29T01:15:51;14.60;99.90
5394;DHT22;2720;52.396;10.064;2022-07-29T01:18:24;14.60;99.90
5394;DHT22;2720;52.396;10.064;2022-07-29T01:23:56;14.60;99.90
5394;DHT22;2720;52.396;10.064;2022-07-29T01:26:37;14.70;99.90
5394;DHT22;2720;52.396;10.064;2022-07-29T01:29:12;14.60;99.90
5394;DHT22;2720;52.396;10.064;2022-07-29T01:34:18;14.60;99.90
5394;DHT22;2720;52.396;10.064;2022-07-29T01:36:51;14.40;99.90
5394;DHT22;2720;52.396;10.064;2022-07-29T01:39:27;14.40;99.90
5394;DHT22;2720;52.396;10.064;2022-07-29T01:42:01;14.40;99.90
5394;DHT22;2720;52.396;10.064;2022-07-29T01:44:35;14.30;99.90
5394;DHT22;2720;52.396;10.064;2022-07-29T01:47:10;14.40;99.90
5394;DHT22;2720;52.396;10.064;2022-07-29T01:49:43;14.40;99.90
5394;DHT22;2720;52.396;10.064;2022-07-29T01:52:18;14.30;99.90
5394;DHT22;2720;52.396;10.064;2022-07-29T01:54:51;14.00;99.90
5394;DHT22;2720;52.396;10.064;2022-07-29T01:57:22;14.40;99.90
5394;DHT22;2720;52.396;10.064;2022-07-29T01:59:53;14.30;99.90
5394;DHT22;2720;52.396;10.064;2022-07-29T02:02:23;14.40;99.90
5394;DHT22;2720;52.396;10.064;2022-07-29T02:04:52;14.30;99.90
5394;DHT22;2720;52.396;10.064;2022-07-29T02:07:21;14.30;99.90
5394;DHT22;2720;52.396;10.064;2022-07-29T02:09:50;14.30;99.90
5394;DHT22;2720;52.396;10.064;2022-07-29T02:12:19;14.30;99.90
5394;DHT22;2720;52.396;10.064;2022-07-29T02:14:52;14.30;99.90
5394;DHT22;2720;52.396;10.064;2022-07-29T02:17:24;14.30;99.90
5394;DHT22;2720;52.396;10.064;2022-07-29T02:19:56;14.40;99.90
5394;DHT22;2720;52.396;10.064;2022-07-29T02:22:24;14.20;99.90
5394;DHT22;2720;52.396;10.064;2022-07-29T02:24:53;14.20;99.90
5394;DHT22;2720;52.396;10.064;2022-07-29T02:27:20;14.00;99.90
5394;DHT22;2720;52.396;10.064;2022-07-29T02:29:50;14.10;99.90
5394;DHT22;2720;52.396;10.064;2022-07-29T02:34:48;14.10;99.90
5394;DHT22;2720;52.396;10.064;2022-07-29T02:37:16;14.20;99.90
5394;DHT22;2720;52.396;10.064;2022-07-29T02:39:45;14.30;99.90
5394;DHT22;2720;52.396;10.064;2022-07-29T02:42:16;13.90;99.90
5394;DHT22;2720;52.396;10.064;2022-07-29T02:44:44;14.10;99.90
5394;DHT22;2720;52.396;10.064;2022-07-29T02:47:16;13.90;99.90
5394;DHT22;2720;52.396;10.064;2022-07-29T02:49:51;13.90;99.90
5394;DHT22;2720;52.396;10.064;2022-07-29T02:52:23;14.00;99.90
5394;DHT22;2720;52.396;10.064;2022-07-29T02:54:55;14.00;99.90
5394;DHT22;2720;52.396;10.064;2022-07-29T02:57:28;14.00;99.90
5394;DHT22;2720;52.396;10.064;2022-07-29T02:59:59;13.50;99.90
5394;DHT22;2720;52.396;10.064;2022-07-29T03:02:33;14.00;99.90
5394;DHT22;2720;52.396;10.064;2022-07-29T03:05:02;13.90;99.90
5394;DHT22;2720;52.396;10.064;2022-07-29T03:07:30;13.90;99.90
5394;DHT22;2720;52.396;10.064;2022-07-29T03:09:58;13.80;99.90
5394;DHT22;2720;52.396;10.064;2022-07-29T03:12:28;13.90;99.90
5394;DHT22;2720;52.396;10.064;2022-07-29T03:14:57;13.90;99.90
5394;DHT22;2720;52.396;10.064;2022-07-29T03:17:25;13.80;99.90
5394;DHT22;2720;52.396;10.064;2022-07-29T03:19:53;14.20;99.90
5394;DHT22;2720;52.396;10.064;2022-07-29T03:22:22;13.70;99.90
5394;DHT22;2720;52.396;10.064;2022-07-29T03:24:50;13.80;99.90
5394;DHT22;2720;52.396;10.064;2022-07-29T03:27:17;13.80;99.90
5394;DHT22;2720;52.396;10.064;2022-07-29T03:29:44;13.70;99.90
5394;DHT22;2720;52.396;10.064;2022-07-29T03:32:11;13.70;99.90
5394;DHT22;2720;52.396;10.064;2022-07-29T03:34:38;13.80;99.90
5394;DHT22;2720;52.396;10.064;2022-07-29T03:37:05;13.70;99.90
5394;DHT22;2720;52.396;10.064;2022-07-29T03:39:38;13.80;99.90
5394;DHT22;2720;52.396;10.064;2022-07-29T03:42:07;13.60;99.90
5394;DHT22;2720;52.396;10.064;2022-07-29T03:44:35;13.70;99.90
5394;DHT22;2720;52.396;10.064;2022-07-29T03:47:04;13.60;99.90
5394;DHT22;2720;52.396;10.064;2022-07-29T03:49:36;13.50;99.90
5394;DHT22;2720;52.396;10.064;2022-07-29T03:52:04;13.60;99.90
5394;DHT22;2720;52.396;10.064;2022-07-29T03:54:31;13.40;99.90
5394;DHT22;2720;52.396;10.064;2022-07-29T03:57:02;13.40;99.90
5394;DHT22;2720;52.396;10.064;2022-07-29T03:59:31;13.40;99.90
5394;DHT22;2720;52.396;10.064;2022-07-29T04:02:00;13.50;99.90
5394;DHT22;2720;52.396;10.064;2022-07-29T04:04:28;13.40;99.90
5394;DHT22;2720;52.396;10.064;2022-07-29T04:06:55;13.50;99.90
5394;DHT22;2720;52.396;10.064;2022-07-29T04:09:22;13.50;99.90
5394;DHT22;2720;52.396;10.064;2022-07-29T04:11:50;13.50;99.90
5394;DHT22;2720;52.396;10.064;2022-07-29T04:14:18;13.60;99.90
5394;DHT22;2720;52.396;10.064;2022-07-29T04:16:45;13.70;99.90
5394;DHT22;2720;52.396;10.064;2022-07-29T04:19:12;13.60;99.90
5394;DHT22;2720;52.396;10.064;2022-07-29T04:21:40;13.60;99.90
5394;DHT22;2720;52.396;10.064;2022-07-29T04:24:08;13.60;99.90
5394;DHT22;2720;52.396;10.064;2022-07-29T04:26:35;13.60;99.90
5394;DHT22;2720;52.396;10.064;2022-07-29T04:29:02;13.60;99.90
5394;DHT22;2720;52.396;10.064;2022-07-29T04:31:30;13.70;99.90
5394;DHT22;2720;52.396;10.064;2022-07-29T04:33:57;13.70;99.90
5394;DHT22;2720;52.396;10.064;2022-07-29T04:36:24;13.80;99.90
5394;DHT22;2720;52.396;10.064;2022-07-29T04:38:51;13.80;99.90
5394;DHT22;2720;52.396;10.064;2022-07-29T04:41:18;13.80;99.90
5394;DHT22;2720;52.396;10.064;2022-07-29T04:43:45;13.80;99.90
5394;DHT22;2720;52.396;10.064;2022-07-29T04:46:12;14.00;99.90
5394;DHT22;2720;52.396;10.064;2022-07-29T04:48:40;13.90;99.90
5394;DHT22;2720;52.396;10.064;2022-07-29T04:51:07;14.20;99.90
5394;DHT22;2720;52.396;10.064;2022-07-29T04:53:34;14.00;99.90
5394;DHT22;2720;52.396;10.064;2022-07-29T04:56:02;13.90;99.90
5394;DHT22;2720;52.396;10.064;2022-07-29T04:58:29;13.90;99.90
5394;DHT22;2720;52.396;10.064;2022-07-29T05:00:58;13.80;99.90
5394;DHT22;2720;52.396;10.064;2022-07-29T05:03:25;15.20;99.90
5394;DHT22;2720;52.396;10.064;2022-07-29T05:08:20;14.10;99.90
5394;DHT22;2720;52.396;10.064;2022-07-29T05:10:47;14.10;99.90
5394;DHT22;2720;52.396;10.064;2022-07-29T05:13:14;14.30;99.90
5394;DHT22;2720;52.396;10.064;2022-07-29T05:15:41;14.20;99.90
5394;DHT22;2720;52.396;10.064;2022-07-29T05:18:08;13.50;99.90
5394;DHT22;2720;52.396;10.064;2022-07-29T05:20:35;13.20;99.90
5394;DHT22;2720;52.396;10.064;2022-07-29T05:23:04;14.40;99.90
5394;DHT22;2720;52.396;10.064;2022-07-29T05:25:31;15.70;99.90
5394;DHT22;2720;52.396;10.064;2022-07-29T05:27:58;14.60;99.90
5394;DHT22;2720;52.396;10.064;2022-07-29T05:30:25;14.90;99.90
5394;DHT22;2720;52.396;10.064;2022-07-29T05:35:21;14.50;99.90
5394;DHT22;2720;52.396;10.064;2022-07-29T05:37:48;14.60;99.90
5394;DHT22;2720;52.396;10.064;2022-07-29T05:40:16;14.60;99.90
5394;DHT22;2720;52.396;10.064;2022-07-29T05:42:43;15.30;99.90
5394;DHT22;2720;52.396;10.064;2022-07-29T05:45:10;14.50;99.90
5394;DHT22;2720;52.396;10.064;2022-07-29T05:47:37;15.00;99.90
5394;DHT22;2720;52.396;10.064;2022-07-29T05:50:05;15.00;99.90
5394;DHT22;2720;52.396;10.064;2022-07-29T05:52:32;15.00;99.90
5394;DHT22;2720;52.396;10.064;2022-07-29T05:54:59;15.10;99.90
5394;DHT22;2720;52.396;10.064;2022-07-29T05:57:31;15.30;99.90
5394;DHT22;2720;52.396;10.064;2022-07-29T05:59:58;15.20;99.90
5394;DHT22;2720;52.396;10.064;2022-07-29T06:02:25;15.30;99.90
5394;DHT22;2720;52.396;10.064;2022-07-29T06:04:53;15.40;99.90
5394;DHT22;2720;52.396;10.064;2022-07-29T06:07:20;16.40;99.90
5394;DHT22;2720;52.396;10.064;2022-07-29T06:09:47;15.10;99.90
5394;DHT22;2720;52.396;10.064;2022-07-29T06:12:14;15.70;99.90
5394;DHT22;2720;52.396;10.064;2022-07-29T06:14:42;15.80;99.90
5394;DHT22;2720;52.396;10.064;2022-07-29T06:19:37;16.10;99.90
5394;DHT22;2720;52.396;10.064;2022-07-29T06:22:04;16.20;99.90
5394;DHT22;2720;52.396;10.064;2022-07-29T06:24:31;16.40;99.90
5394;DHT22;2720;52.396;10.064;2022-07-29T06:29:25;16.30;99.90
5394;DHT22;2720;52.396;10.064;2022-07-29T06:31:54;16.40;99.90
5394;DHT22;2720;52.396;10.064;2022-07-29T06:34:21;16.50;99.90
5394;DHT22;2720;52.396;10.064;2022-07-29T06:36:48;16.60;99.90
5394;DHT22;2720;52.396;10.064;2022-07-29T06:39:16;16.60;99.90
5394;DHT22;2720;52.396;10.064;2022-07-29T06:41:46;16.70;99.90
5394;DHT22;2720;52.396;10.064;2022-07-29T06:44:14;16.50;99.90
5394;DHT22;2720;52.396;10.064;2022-07-29T06:46:41;16.40;99.90
5394;DHT22;2720;52.396;10.064;2022-07-29T06:49:10;17.90;99.90
5394;DHT22;2720;52.396;10.064;2022-07-29T06:51:38;16.60;99.90
5394;DHT22;2720;52.396;10.064;2022-07-29T06:54:08;16.80;99.90
5394;DHT22;2720;52.396;10.064;2022-07-29T06:56:35;16.70;99.90
5394;DHT22;2720;52.396;10.064;2022-07-29T06:59:03;16.80;99.90
5394;DHT22;2720;52.396;10.064;2022-07-29T07:01:30;16.70;99.90
5394;DHT22;2720;52.396;10.064;2022-07-29T07:03:57;16.90;99.90
5394;DHT22;2720;52.396;10.064;2022-07-29T07:06:25;17.10;99.90
5394;DHT22;2720;52.396;10.064;2022-07-29T07:08:52;17.30;99.90
5394;DHT22;2720;52.396;10.064;2022-07-29T07:11:19;17.00;99.90
5394;DHT22;2720;52.396;10.064;2022-07-29T07:13:46;17.10;99.90
5394;DHT22;2720;52.396;10.064;2022-07-29T07:16:13;17.00;99.90
5394;DHT22;2720;52.396;10.064;2022-07-29T07:18:40;17.20;99.90
5394;DHT22;2720;52.396;10.064;2022-07-29T07:21:07;17.30;99.90
5394;DHT22;2720;52.396;10.064;2022-07-29T07:23:35;17.40;99.90
5394;DHT22;2720;52.396;10.064;2022-07-29T07:26:02;17.70;99.90
5394;DHT22;2720;52.396;10.064;2022-07-29T07:28:31;18.40;99.90
5394;DHT22;2720;52.396;10.064;2022-07-29T07:30:58;17.80;99.90
5394;DHT22;2720;52.396;10.064;2022-07-29T07:33:25;17.70;99.90
5394;DHT22;2720;52.396;10.064;2022-07-29T07:35:52;18.80;99.90
5394;DHT22;2720;52.396;10.064;2022-07-29T07:38:19;17.70;99.90
5394;DHT22;2720;52.396;10.064;2022-07-29T07:40:47;18.00;99.90
5394;DHT22;2720;52.396;10.064;2022-07-29T07:43:14;18.20;99.90
5394;DHT22;2720;52.396;10.064;2022-07-29T07:45:44;18.70;99.90
5394;DHT22;2720;52.396;10.064;2022-07-29T07:48:11;18.90;99.90
5394;DHT22;2720;52.396;10.064;2022-07-29T07:50:38;19.00;99.90
5394;DHT22;2720;52.396;10.064;2022-07-29T07:53:05;19.20;99.90
5394;DHT22;2720;52.396;10.064;2022-07-29T07:55:32;19.40;99.90
5394;DHT22;2720;52.396;10.064;2022-07-29T07:58:00;19.30;99.90
5394;DHT22;2720;52.396;10.064;2022-07-29T08:00:27;19.40;99.90
5394;DHT22;2720;52.396;10.064;2022-07-29T08:02:54;19.40;99.90
5394;DHT22;2720;52.396;10.064;2022-07-29T08:05:21;19.50;99.90
5394;DHT22;2720;52.396;10.064;2022-07-29T08:07:48;19.80;99.90
5394;DHT22;2720;52.396;10.064;2022-07-29T08:10:18;19.80;99.90
5394;DHT22;2720;52.396;10.064;2022-07-29T08:13:08;20.00;99.90
5394;DHT22;2720;52.396;10.064;2022-07-29T08:15:36;20.00;99.90
5394;DHT22;2720;52.396;10.064;2022-07-29T08:18:03;20.00;99.90
5394;DHT22;2720;52.396;10.064;2022-07-29T08:20:30;20.30;99.90
5394;DHT22;2720;52.396;10.064;2022-07-29T08:22:59;20.40;99.90
5394;DHT22;2720;52.396;10.064;2022-07-29T08:25:26;20.30;99.90
5394;DHT22;2720;52.396;10.064;2022-07-29T08:27:53;20.30;99.90
5394;DHT22;2720;52.396;10.064;2022-07-29T08:30:21;20.40;99.90
5394;DHT22;2720;52.396;10.064;2022-07-29T08:32:51;20.60;99.90
5394;DHT22;2720;52.396;10.064;2022-07-29T08:35:18;20.60;99.90
5394;DHT22;2720;52.396;10.064;2022-07-29T08:37:45;20.80;99.90
5394;DHT22;2720;52.396;10.064;2022-07-29T08:40:13;20.80;99.90
5394;DHT22;2720;52.396;10.064;2022-07-29T08:42:40;20.80;99.90
5394;DHT22;2720;52.396;10.064;2022-07-29T08:45:08;21.00;99.90
5394;DHT22;2720;52.396;10.064;2022-07-29T08:47:38;21.20;99.90
5394;DHT22;2720;52.396;10.064;2022-07-29T08:50:07;21.40;99.90
5394;DHT22;2720;52.396;10.064;2022-07-29T08:52:38;21.20;99.90
5394;DHT22;2720;52.396;10.064;2022-07-29T08:55:08;21.20;99.90
5394;DHT22;2720;52.396;10.064;2022-07-29T08:57:35;21.20;99.90
5394;DHT22;2720;52.396;10.064;2022-07-29T09:00:07;21.20;99.90
5394;DHT22;2720;52.396;10.064;2022-07-29T09:02:40;21.20;99.90
5394;DHT22;2720;52.396;10.064;2022-07-29T09:05:08;21.20;99.90
5394;DHT22;2720;52.396;10.064;2022-07-29T09:07:36;21.40;99.90
5394;DHT22;2720;52.396;10.064;2022-07-29T09:10:05;21.50;99.90
5394;DHT22;2720;52.396;10.064;2022-07-29T09:12:34;21.90;99.90
5394;DHT22;2720;52.396;10.064;2022-07-29T09:15:02;21.90;99.90
5394;DHT22;2720;52.396;10.064;2022-07-29T09:17:44;21.90;99.90
5394;DHT22;2720;52.396;10.064;2022-07-29T09:20:12;22.10;99.90
5394;DHT22;2720;52.396;10.064;2022-07-29T09:22:40;22.20;99.90
5394;DHT22;2720;52.396;10.064;2022-07-29T09:25:06;22.20;99.90
5394;DHT22;2720;52.396;10.064;2022-07-29T09:27:34;22.20;99.90
5394;DHT22;2720;52.396;10.064;2022-07-29T09:30:04;22.20;99.90
5394;DHT22;2720;52.396;10.064;2022-07-29T09:32:32;22.20;99.90
5394;DHT22;2720;52.396;10.064;2022-07-29T09:35:17;22.20;99.90
5394;DHT22;2720;52.396;10.064;2022-07-29T09:37:45;22.20;99.90
5394;DHT22;2720;52.396;10.064;2022-07-29T09:40:14;22.30;99.90
5394;DHT22;2720;52.396;10.064;2022-07-29T09:42:42;22.40;99.90
5394;DHT22;2720;52.396;10.064;2022-07-29T09:45:10;22.60;99.90
5394;DHT22;2720;52.396;10.064;2022-07-29T09:47:42;22.80;99.90
5394;DHT22;2720;52.396;10.064;2022-07-29T09:50:11;23.00;99.90
5394;DHT22;2720;52.396;10.064;2022-07-29T09:52:48;23.20;99.90
5394;DHT22;2720;52.396;10.064;2022-07-29T09:55:18;23.40;99.90
5394;DHT22;2720;52.396;10.064;2022-07-29T09:57:46;23.40;99.90
5394;DHT22;2720;52.396;10.064;2022-07-29T10:00:15;23.60;99.90
5394;DHT22;2720;52.396;10.064;2022-07-29T10:02:44;23.80;99.90
5394;DHT22;2720;52.396;10.064;2022-07-29T10:05:22;24.00;99.90
5394;DHT22;2720;52.396;10.064;2022-07-29T10:07:52;24.10;99.90
5394;DHT22;2720;52.396;10.064;2022-07-29T10:10:20;24.30;99.90
5394;DHT22;2720;52.396;10.064;2022-07-29T10:12:49;24.30;99.90
5394;DHT22;2720;52.396;10.064;2022-07-29T10:15:17;24.50;99.90
5394;DHT22;2720;52.396;10.064;2022-07-29T10:17:44;24.70;99.90
5394;DHT22;2720;52.396;10.064;2022-07-29T10:20:11;24.90;99.90
5394;DHT22;2720;52.396;10.064;2022-07-29T10:22:39;25.00;99.90
5394;DHT22;2720;52.396;10.064;2022-07-29T10:25:08;25.20;99.90
5394;DHT22;2720;52.396;10.064;2022-07-29T10:27:35;25.00;99.90
5394;DHT22;2720;52.396;10.064;2022-07-29T10:30:03;25.10;99.90
5394;DHT22;2720;52.396;10.064;2022-07-29T10:32:43;25.00;99.90
5394;DHT22;2720;52.396;10.064;2022-07-29T10:35:21;24.90;99.90
5394;DHT22;2720;52.396;10.064;2022-07-29T10:40:57;25.10;99.90
5394;DHT22;2720;52.396;10.064;2022-07-29T10:43:46;25.20;99.90
5394;DHT22;2720;52.396;10.064;2022-07-29T10:46:14;25.10;99.90
5394;DHT22;2720;52.396;10.064;2022-07-29T10:49:05;25.00;99.90
5394;DHT22;2720;52.396;10.064;2022-07-29T10:51:57;25.00;99.90
5394;DHT22;2720;52.396;10.064;2022-07-29T10:54:42;25.10;99.90
5394;DHT22;2720;52.396;10.064;2022-07-29T10:57:22;25.20;99.90
5394;DHT22;2720;52.396;10.064;2022-07-29T11:00:30;25.40;99.90
5394;DHT22;2720;52.396;10.064;2022-07-29T11:02:58;25.50;99.90
5394;DHT22;2720;52.396;10.064;2022-07-29T11:05:26;25.70;99.90
5394;DHT22;2720;52.396;10.064;2022-07-29T11:08:21;25.80;99.90
5394;DHT22;2720;52.396;10.064;2022-07-29T11:10:49;25.80;99.90
5394;DHT22;2720;52.396;10.064;2022-07-29T11:17:02;26.10;99.90
5394;DHT22;2720;52.396;10.064;2022-07-29T11:19:30;26.30;99.90
5394;DHT22;2720;52.396;10.064;2022-07-29T11:21:57;26.40;99.90
5394;DHT22;2720;52.396;10.064;2022-07-29T11:24:25;26.10;99.90
5394;DHT22;2720;52.396;10.064;2022-07-29T11:27:12;26.30;99.90
5394;DHT22;2720;52.396;10.064;2022-07-29T11:29:53;25.80;98.90
5394;DHT22;2720;52.396;10.064;2022-07-29T11:32:23;25.80;99.90
5394;DHT22;2720;52.396;10.064;2022-07-29T11:35:11;26.00;99.90
5394;DHT22;2720;52.396;10.064;2022-07-29T11:40:17;25.80;99.90
5394;DHT22;2720;52.396;10.064;2022-07-29T11:42:45;25.90;99.90
5394;DHT22;2720;52.396;10.064;2022-07-29T11:45:15;25.80;99.90
5394;DHT22;2720;52.396;10.064;2022-07-29T11:47:50;26.00;99.90
5394;DHT22;2720;52.396;10.064;2022-07-29T11:50:28;26.10;99.90
5394;DHT22;2720;52.396;10.064;2022-07-29T11:52:55;26.10;99.90
5394;DHT22;2720;52.396;10.064;2022-07-29T11:55:24;26.00;99.90
5394;DHT22;2720;52.396;10.064;2022-07-29T11:57:52;26.10;99.90
5394;DHT22;2720;52.396;10.064;2022-07-29T12:00:25;26.10;99.90
5394;DHT22;2720;52.396;10.064;2022-07-29T12:02:55;26.00;99.90
5394;DHT22;2720;52.396;10.064;2022-07-29T12:05:34;26.10;99.90
5394;DHT22;2720;52.396;10.064;2022-07-29T12:08:06;26.30;99.90
5394;DHT22;2720;52.396;10.064;2022-07-29T12:10:33;26.30;99.90
5394;DHT22;2720;52.396;10.064;2022-07-29T12:13:00;26.20;99.90
5394;DHT22;2720;52.396;10.064;2022-07-29T12:15:27;26.20;99.90
5394;DHT22;2720;52.396;10.064;2022-07-29T12:17:55;26.20;99.90
5394;DHT22;2720;52.396;10.064;2022-07-29T12:20:24;26.10;99.90
5394;DHT22;2720;52.396;10.064;2022-07-29T12:22:51;26.00;99.90
5394;DHT22;2720;52.396;10.064;2022-07-29T12:25:19;25.90;99.90
5394;DHT22;2720;52.396;10.064;2022-07-29T12:27:47;26.00;99.90
5394;DHT22;2720;52.396;10.064;2022-07-29T12:30:34;26.20;99.90
5394;DHT22;2720;52.396;10.064;2022-07-29T12:33:13;26.80;99.90
5394;DHT22;2720;52.396;10.064;2022-07-29T12:35:42;26.40;99.90
5394;DHT22;2720;52.396;10.064;2022-07-29T12:38:10;26.60;99.90
5394;DHT22;2720;52.396;10.064;2022-07-29T12:40:38;26.60;99.90
5394;DHT22;2720;52.396;10.064;2022-07-29T12:43:06;26.60;99.90
5394;DHT22;2720;52.396;10.064;2022-07-29T12:45:35;26.50;99.90
5394;DHT22;2720;52.396;10.064;2022-07-29T12:48:04;26.60;99.90
5394;DHT22;2720;52.396;10.064;2022-07-29T12:50:34;26.80;99.90
5394;DHT22;2720;52.396;10.064;2022-07-29T12:53:12;27.10;99.90
5394;DHT22;2720;52.396;10.064;2022-07-29T12:55:44;27.50;99.90
5394;DHT22;2720;52.396;10.064;2022-07-29T12:58:25;27.80;99.90
5394;DHT22;2720;52.396;10.064;2022-07-29T13:01:03;28.20;99.90
5394;DHT22;2720;52.396;10.064;2022-07-29T13:03:43;28.60;99.90
5394;DHT22;2720;52.396;10.064;2022-07-29T13:06:32;28.70;99.90
5394;DHT22;2720;52.396;10.064;2022-07-29T13:09:01;28.90;99.90
5394;DHT22;2720;52.396;10.064;2022-07-29T13:11:31;29.10;99.90
5394;DHT22;2720;52.396;10.064;2022-07-29T13:13:58;28.80;99.90
5394;DHT22;2720;52.396;10.064;2022-07-29T13:16:25;28.60;97.90
5394;DHT22;2720;52.396;10.064;2022-07-29T13:19:10;28.50;98.50
5394;DHT22;2720;52.396;10.064;2022-07-29T13:21:38;28.50;98.40
5394;DHT22;2720;52.396;10.064;2022-07-29T13:24:06;28.80;98.40
5394;DHT22;2720;52.396;10.064;2022-07-29T13:26:34;29.00;97.90
5394;DHT22;2720;52.396;10.064;2022-07-29T13:29:02;29.20;97.50
5394;DHT22;2720;52.396;10.064;2022-07-29T13:31:29;29.80;97.10
5394;DHT22;2720;52.396;10.064;2022-07-29T13:33:56;30.50;96.50
5394;DHT22;2720;52.396;10.064;2022-07-29T13:36:25;30.80;95.40
5394;DHT22;2720;52.396;10.064;2022-07-29T13:38:52;31.00;95.00
5394;DHT22;2720;52.396;10.064;2022-07-29T13:41:19;30.90;94.20
5394;DHT22;2720;52.396;10.064;2022-07-29T13:43:46;31.10;94.70
5394;DHT22;2720;52.396;10.064;2022-07-29T13:46:13;31.40;95.90
5394;DHT22;2720;52.396;10.064;2022-07-29T13:48:40;30.80;93.50
5394;DHT22;2720;52.396;10.064;2022-07-29T13:51:07;30.50;95.00
5394;DHT22;2720;52.396;10.064;2022-07-29T13:53:36;30.20;95.40
5394;DHT22;2720;52.396;10.064;2022-07-29T13:56:03;30.10;94.30
5394;DHT22;2720;52.396;10.064;2022-07-29T13:58:31;29.80;93.70
5394;DHT22;2720;52.396;10.064;2022-07-29T14:00:59;29.50;94.80
5394;DHT22;2720;52.396;10.064;2022-07-29T14:03:26;29.30;97.30
5394;DHT22;2720;52.396;10.064;2022-07-29T14:05:53;29.20;96.40
5394;DHT22;2720;52.396;10.064;2022-07-29T14:08:21;29.00;96.10
5394;DHT22;2720;52.396;10.064;2022-07-29T14:10:52;29.40;93.20
5394;DHT22;2720;52.396;10.064;2022-07-29T14:13:19;29.40;93.50
5394;DHT22;2720;52.396;10.064;2022-07-29T14:15:46;30.30;93.50
5394;DHT22;2720;52.396;10.064;2022-07-29T14:18:13;31.00;93.10
5394;DHT22;2720;52.396;10.064;2022-07-29T14:20:40;30.80;91.90
5394;DHT22;2720;52.396;10.064;2022-07-29T14:23:07;30.20;92.70
5394;DHT22;2720;52.396;10.064;2022-07-29T14:25:34;29.80;91.30
5394;DHT22;2720;52.396;10.064;2022-07-29T14:28:03;29.60;92.60
5394;DHT22;2720;52.396;10.064;2022-07-29T14:30:30;30.20;93.10
5394;DHT22;2720;52.396;10.064;2022-07-29T14:32:56;29.20;91.60
5394;DHT22;2720;52.396;10.064;2022-07-29T14:35:23;28.60;93.90
5394;DHT22;2720;52.396;10.064;2022-07-29T14:37:50;28.70;91.00
5394;DHT22;2720;52.396;10.064;2022-07-29T14:40:17;28.80;91.60
5394;DHT22;2720;52.396;10.064;2022-07-29T14:42:44;28.70;90.30
5394;DHT22;2720;52.396;10.064;2022-07-29T14:45:13;29.00;93.50
5394;DHT22;2720;52.396;10.064;2022-07-29T14:47:40;29.30;83.70
5394;DHT22;2720;52.396;10.064;2022-07-29T14:50:08;29.80;82.30
5394;DHT22;2720;52.396;10.064;2022-07-29T14:52:35;29.90;84.40
5394;DHT22;2720;52.396;10.064;2022-07-29T14:55:03;30.20;84.30
5394;DHT22;2720;52.396;10.064;2022-07-29T14:57:30;30.20;85.60
5394;DHT22;2720;52.396;10.064;2022-07-29T14:59:57;29.90;86.30
5394;DHT22;2720;52.396;10.064;2022-07-29T15:02:26;29.20;86.00
5394;DHT22;2720;52.396;10.064;2022-07-29T15:04:53;29.20;91.80
5394;DHT22;2720;52.396;10.064;2022-07-29T15:07:20;29.30;81.60
5394;DHT22;2720;52.396;10.064;2022-07-29T15:09:46;30.10;82.60
5394;DHT22;2720;52.396;10.064;2022-07-29T15:12:13;30.10;87.00
5394;DHT22;2720;52.396;10.064;2022-07-29T15:14:43;29.00;80.50
5394;DHT22;2720;52.396;10.064;2022-07-29T15:17:10;29.40;81.50
5394;DHT22;2720;52.396;10.064;2022-07-29T15:19:38;28.80;81.70
5394;DHT22;2720;52.396;10.064;2022-07-29T15:22:05;28.40;82.80
5394;DHT22;2720;52.396;10.064;2022-07-29T15:24:32;28.20;83.70
5394;DHT22;2720;52.396;10.064;2022-07-29T15:26:59;27.80;84.10
5394;DHT22;2720;52.396;10.064;2022-07-29T15:29:26;27.90;85.10
5394;DHT22;2720;52.396;10.064;2022-07-29T15:31:53;28.00;87.30
5394;DHT22;2720;52.396;10.064;2022-07-29T15:34:20;28.20;90.40
5394;DHT22;2720;52.396;10.064;2022-07-29T15:36:50;28.30;83.20
5394;DHT22;2720;52.396;10.064;2022-07-29T15:39:17;28.30;83.10
5394;DHT22;2720;52.396;10.064;2022-07-29T15:41:44;28.20;83.70
5394;DHT22;2720;52.396;10.064;2022-07-29T15:44:11;28.00;85.70
5394;DHT22;2720;52.396;10.064;2022-07-29T15:46:38;28.50;86.10
5394;DHT22;2720;52.396;10.064;2022-07-29T15:49:23;27.90;87.30
5394;DHT22;2720;52.396;10.064;2022-07-29T15:51:57;27.20;85.20
5394;DHT22;2720;52.396;10.064;2022-07-29T15:54:25;27.30;84.30
5394;DHT22;2720;52.396;10.064;2022-07-29T15:56:52;27.10;84.60
5394;DHT22;2720;52.396;10.064;2022-07-29T15:59:19;27.10;86.10
5394;DHT22;2720;52.396;10.064;2022-07-29T16:01:47;27.20;90.10
5394;DHT22;2720;52.396;10.064;2022-07-29T16:04:14;26.90;85.10
5394;DHT22;2720;52.396;10.064;2022-07-29T16:06:44;26.80;84.50
5394;DHT22;2720;52.396;10.064;2022-07-29T16:09:13;26.70;85.10
5394;DHT22;2720;52.396;10.064;2022-07-29T16:11:40;26.70;85.30
5394;DHT22;2720;52.396;10.064;2022-07-29T16:14:07;26.70;86.90
5394;DHT22;2720;52.396;10.064;2022-07-29T16:16:35;29.40;87.10
5394;DHT22;2720;52.396;10.064;2022-07-29T16:19:05;28.10;98.80
5394;DHT22;2720;52.396;10.064;2022-07-29T16:21:34;26.50;85.40
5394;DHT22;2720;52.396;10.064;2022-07-29T16:24:01;26.40;86.00
5394;DHT22;2720;52.396;10.064;2022-07-29T16:26:30;26.50;90.00
5394;DHT22;2720;52.396;10.064;2022-07-29T16:28:57;26.40;86.20
5394;DHT22;2720;52.396;10.064;2022-07-29T16:31:24;26.40;85.90
5394;DHT22;2720;52.396;10.064;2022-07-29T16:33:51;26.40;86.40
5394;DHT22;2720;52.396;10.064;2022-07-29T16:36:21;26.50;86.20
5394;DHT22;2720;52.396;10.064;2022-07-29T16:38:50;26.60;85.90
5394;DHT22;2720;52.396;10.064;2022-07-29T16:41:17;26.60;86.50